sensor_id;sensor_type;location;lat;lon;timestamp;P1;durP1;ratioP1;P2;durP2;ratioP2
5414;SDS011;2730;51.512;7.504;2023-06-26T00:00:32;6.47;;;5.87;;
5414;SDS011;2730;51.512;7.504;2023-06-26T00:02:59;8.43;;;6.27;;
5414;SDS011;2730;51.512;7.504;2023-06-26T00:05:26;5.30;;;4.90;;
5414;SDS011;2730;51.512;7.504;2023-06-26T00:07:55;9.57;;;5.70;;
5414;SDS011;2730;51.512;7.504;2023-06-26T00:10:25;6.50;;;5.80;;
5414;SDS011;2730;51.512;7.504;2023-06-26T00:12:53;9.23;;;5.80;;
5414;SDS011;2730;51.512;7.504;2023-06-26T00:15:20;6.07;;;5.30;;
5414;SDS011;2730;51.512;7.504;2023-06-26T00:17:47;5.70;;;5.10;;
5414;SDS011;2730;51.512;7.504;2023-06-26T00:20:13;5.83;;;5.23;;
5414;SDS011;2730;51.512;7.504;2023-06-26T00:22:43;6.33;;;5.60;;
5414;SDS011;2730;51.512;7.504;2023-06-26T00:25:11;7.13;;;6.07;;
5414;SDS011;2730;51.512;7.504;2023-06-26T00:27:38;8.73;;;5.63;;
5414;SDS011;2730;51.512;7.504;2023-06-26T00:30:06;5.97;;;5.37;;
5414;SDS011;2730;51.512;7.504;2023-06-26T00:32:33;7.60;;;4.83;;
5414;SDS011;2730;51.512;7.504;2023-06-26T00:35:00;8.00;;;5.20;;
5414;SDS011;2730;51.512;7.504;2023-06-26T00:37:27;5.53;;;4.90;;
5414;SDS011;2730;51.512;7.504;2023-06-26T00:39:54;5.30;;;4.80;;
5414;SDS011;2730;51.512;7.504;2023-06-26T00:42:20;5.10;;;4.60;;
5414;SDS011;2730;51.512;7.504;2023-06-26T00:44:47;6.10;;;5.50;;
5414;SDS011;2730;51.512;7.504;2023-06-26T00:47:15;5.70;;;4.97;;
5414;SDS011;2730;51.512;7.504;2023-06-26T00:49:43;5.63;;;4.97;;
5414;SDS011;2730;51.512;7.504;2023-06-26T00:52:10;5.80;;;5.13;;
5414;SDS011;2730;51.512;7.504;2023-06-26T00:54:37;6.60;;;5.70;;
5414;SDS011;2730;51.512;7.504;2023-06-26T00:57:04;6.03;;;5.47;;
5414;SDS011;2730;51.512;7.504;2023-06-26T00:59:30;7.13;;;5.20;;
5414;SDS011;2730;51.512;7.504;2023-06-26T01:01:57;7.90;;;5.20;;
5414;SDS011;2730;51.512;7.504;2023-06-26T01:04:26;7.00;;;5.43;;
5414;SDS011;2730;51.512;7.504;2023-06-26T01:06:57;15.07;;;5.63;;
5414;SDS011;2730;51.512;7.504;2023-06-26T01:09:25;5.97;;;5.33;;
5414;SDS011;2730;51.512;7.504;2023-06-26T01:11:53;13.93;;;5.40;;
5414;SDS011;2730;51.512;7.504;2023-06-26T01:14:20;5.43;;;4.93;;
5414;SDS011;2730;51.512;7.504;2023-06-26T01:16:47;7.60;;;5.03;;
5414;SDS011;2730;51.512;7.504;2023-06-26T01:19:18;7.60;;;6.80;;
5414;SDS011;2730;51.512;7.504;2023-06-26T01:21:51;7.27;;;5.20;;
5414;SDS011;2730;51.512;7.504;2023-06-26T01:24:23;5.40;;;4.90;;
5414;SDS011;2730;51.512;7.504;2023-06-26T01:26:57;6.07;;;5.47;;
5414;SDS011;2730;51.512;7.504;2023-06-26T01:29:27;5.70;;;5.17;;
5414;SDS011;2730;51.512;7.504;2023-06-26T01:31:57;8.17;;;4.50;;
5414;SDS011;2730;51.512;7.504;2023-06-26T01:34:25;9.70;;;5.73;;
5414;SDS011;2730;51.512;7.504;2023-06-26T01:36:53;7.33;;;5.40;;
5414;SDS011;2730;51.512;7.504;2023-06-26T01:39:20;6.50;;;5.57;;
5414;SDS011;2730;51.512;7.504;2023-06-26T01:41:46;5.73;;;5.20;;
5414;SDS011;2730;51.512;7.504;2023-06-26T01:44:17;6.20;;;5.10;;
5414;SDS011;2730;51.512;7.504;2023-06-26T01:46:51;12.53;;;5.70;;
5414;SDS011;2730;51.512;7.504;2023-06-26T01:49:25;16.27;;;6.60;;
5414;SDS011;2730;51.512;7.504;2023-06-26T01:52:03;22.27;;;6.40;;
5414;SDS011;2730;51.512;7.504;2023-06-26T01:54:37;8.10;;;5.20;;
5414;SDS011;2730;51.512;7.504;2023-06-26T01:57:07;7.70;;;5.30;;
5414;SDS011;2730;51.512;7.504;2023-06-26T01:59:37;7.10;;;5.20;;
5414;SDS011;2730;51.512;7.504;2023-06-26T02:02:06;5.70;;;4.97;;
5414;SDS011;2730;51.512;7.504;2023-06-26T02:04:33;6.07;;;5.27;;
5414;SDS011;2730;51.512;7.504;2023-06-26T02:07:00;9.60;;;5.57;;
5414;SDS011;2730;51.512;7.504;2023-06-26T02:09:27;8.30;;;5.70;;
5414;SDS011;2730;51.512;7.504;2023-06-26T02:11:53;6.83;;;5.37;;
5414;SDS011;2730;51.512;7.504;2023-06-26T02:14:20;6.27;;;5.50;;
5414;SDS011;2730;51.512;7.504;2023-06-26T02:16:48;5.83;;;5.23;;
5414;SDS011;2730;51.512;7.504;2023-06-26T02:19:15;10.20;;;5.20;;
5414;SDS011;2730;51.512;7.504;2023-06-26T02:21:46;6.80;;;4.70;;
5414;SDS011;2730;51.512;7.504;2023-06-26T02:24:13;7.10;;;6.13;;
5414;SDS011;2730;51.512;7.504;2023-06-26T02:26:40;6.83;;;5.70;;
5414;SDS011;2730;51.512;7.504;2023-06-26T02:29:07;6.43;;;5.30;;
5414;SDS011;2730;51.512;7.504;2023-06-26T02:31:33;6.73;;;5.40;;
5414;SDS011;2730;51.512;7.504;2023-06-26T02:34:01;7.17;;;5.50;;
5414;SDS011;2730;51.512;7.504;2023-06-26T02:36:29;11.93;;;5.23;;
5414;SDS011;2730;51.512;7.504;2023-06-26T02:38:56;5.90;;;5.30;;
5414;SDS011;2730;51.512;7.504;2023-06-26T02:41:23;5.70;;;5.10;;
5414;SDS011;2730;51.512;7.504;2023-06-26T02:43:49;9.37;;;4.97;;
5414;SDS011;2730;51.512;7.504;2023-06-26T02:46:16;7.67;;;5.50;;
5414;SDS011;2730;51.512;7.504;2023-06-26T02:48:43;6.30;;;5.17;;
5414;SDS011;2730;51.512;7.504;2023-06-26T02:51:11;5.70;;;4.70;;
5414;SDS011;2730;51.512;7.504;2023-06-26T02:53:38;7.23;;;5.07;;
5414;SDS011;2730;51.512;7.504;2023-06-26T02:56:04;5.60;;;5.10;;
5414;SDS011;2730;51.512;7.504;2023-06-26T02:58:31;7.30;;;5.63;;
5414;SDS011;2730;51.512;7.504;2023-06-26T03:00:58;8.60;;;5.73;;
5414;SDS011;2730;51.512;7.504;2023-06-26T03:03:25;5.87;;;5.27;;
5414;SDS011;2730;51.512;7.504;2023-06-26T03:05:51;6.07;;;5.30;;
5414;SDS011;2730;51.512;7.504;2023-06-26T03:08:19;6.73;;;5.80;;
5414;SDS011;2730;51.512;7.504;2023-06-26T03:10:46;6.03;;;5.33;;
5414;SDS011;2730;51.512;7.504;2023-06-26T03:13:13;6.80;;;5.73;;
5414;SDS011;2730;51.512;7.504;2023-06-26T03:15:40;6.47;;;5.10;;
5414;SDS011;2730;51.512;7.504;2023-06-26T03:18:06;7.53;;;5.10;;
5414;SDS011;2730;51.512;7.504;2023-06-26T03:20:34;7.30;;;5.87;;
5414;SDS011;2730;51.512;7.504;2023-06-26T03:23:01;8.43;;;5.73;;
5414;SDS011;2730;51.512;7.504;2023-06-26T03:25:29;7.80;;;6.20;;
5414;SDS011;2730;51.512;7.504;2023-06-26T03:27:56;11.47;;;5.40;;
5414;SDS011;2730;51.512;7.504;2023-06-26T03:30:23;7.50;;;5.03;;
5414;SDS011;2730;51.512;7.504;2023-06-26T03:32:49;6.90;;;4.70;;
5414;SDS011;2730;51.512;7.504;2023-06-26T03:35:16;6.40;;;5.43;;
5414;SDS011;2730;51.512;7.504;2023-06-26T03:37:43;6.90;;;4.97;;
5414;SDS011;2730;51.512;7.504;2023-06-26T03:40:10;4.77;;;4.37;;
5414;SDS011;2730;51.512;7.504;2023-06-26T03:42:38;6.83;;;4.97;;
5414;SDS011;2730;51.512;7.504;2023-06-26T03:45:05;6.00;;;4.90;;
5414;SDS011;2730;51.512;7.504;2023-06-26T03:47:32;10.57;;;6.03;;
5414;SDS011;2730;51.512;7.504;2023-06-26T03:49:59;6.40;;;5.27;;
5414;SDS011;2730;51.512;7.504;2023-06-26T03:52:26;6.60;;;4.77;;
5414;SDS011;2730;51.512;7.504;2023-06-26T03:54:55;8.10;;;4.93;;
5414;SDS011;2730;51.512;7.504;2023-06-26T03:57:22;5.70;;;5.10;;
5414;SDS011;2730;51.512;7.504;2023-06-26T03:59:51;6.40;;;5.70;;
5414;SDS011;2730;51.512;7.504;2023-06-26T04:02:18;5.57;;;4.97;;
5414;SDS011;2730;51.512;7.504;2023-06-26T04:04:45;5.67;;;5.00;;
5414;SDS011;2730;51.512;7.504;2023-06-26T04:07:11;8.40;;;5.33;;
5414;SDS011;2730;51.512;7.504;2023-06-26T04:09:38;6.60;;;4.73;;
5414;SDS011;2730;51.512;7.504;2023-06-26T04:12:05;7.13;;;5.40;;
5414;SDS011;2730;51.512;7.504;2023-06-26T04:14:32;6.00;;;5.37;;
5414;SDS011;2730;51.512;7.504;2023-06-26T04:17:00;5.87;;;4.63;;
5414;SDS011;2730;51.512;7.504;2023-06-26T04:19:28;5.83;;;5.07;;
5414;SDS011;2730;51.512;7.504;2023-06-26T04:21:55;9.50;;;5.37;;
5414;SDS011;2730;51.512;7.504;2023-06-26T04:24:22;5.60;;;5.10;;
5414;SDS011;2730;51.512;7.504;2023-06-26T04:26:48;6.80;;;5.43;;
5414;SDS011;2730;51.512;7.504;2023-06-26T04:29:15;6.50;;;5.47;;
5414;SDS011;2730;51.512;7.504;2023-06-26T04:31:42;6.87;;;4.97;;
5414;SDS011;2730;51.512;7.504;2023-06-26T04:34:12;6.77;;;5.07;;
5414;SDS011;2730;51.512;7.504;2023-06-26T04:36:39;6.40;;;5.63;;
5414;SDS011;2730;51.512;7.504;2023-06-26T04:39:06;5.90;;;4.70;;
5414;SDS011;2730;51.512;7.504;2023-06-26T04:41:33;5.27;;;4.77;;
5414;SDS011;2730;51.512;7.504;2023-06-26T04:43:59;8.27;;;6.00;;
5414;SDS011;2730;51.512;7.504;2023-06-26T04:46:26;8.47;;;5.60;;
5414;SDS011;2730;51.512;7.504;2023-06-26T04:48:53;6.27;;;5.20;;
5414;SDS011;2730;51.512;7.504;2023-06-26T04:51:24;6.57;;;5.50;;
5414;SDS011;2730;51.512;7.504;2023-06-26T04:53:52;10.30;;;5.03;;
5414;SDS011;2730;51.512;7.504;2023-06-26T04:56:18;10.00;;;5.70;;
5414;SDS011;2730;51.512;7.504;2023-06-26T04:58:45;6.73;;;5.80;;
5414;SDS011;2730;51.512;7.504;2023-06-26T05:01:12;8.00;;;6.47;;
5414;SDS011;2730;51.512;7.504;2023-06-26T05:03:40;9.30;;;5.93;;
5414;SDS011;2730;51.512;7.504;2023-06-26T05:06:07;6.13;;;5.43;;
5414;SDS011;2730;51.512;7.504;2023-06-26T05:08:35;9.30;;;5.27;;
5414;SDS011;2730;51.512;7.504;2023-06-26T05:11:02;10.37;;;5.43;;
5414;SDS011;2730;51.512;7.504;2023-06-26T05:13:28;6.10;;;5.50;;
5414;SDS011;2730;51.512;7.504;2023-06-26T05:15:55;7.00;;;5.50;;
5414;SDS011;2730;51.512;7.504;2023-06-26T05:18:22;7.83;;;5.23;;
5414;SDS011;2730;51.512;7.504;2023-06-26T05:20:49;7.50;;;5.70;;
5414;SDS011;2730;51.512;7.504;2023-06-26T05:23:16;10.00;;;5.70;;
5414;SDS011;2730;51.512;7.504;2023-06-26T05:25:45;9.93;;;5.30;;
5414;SDS011;2730;51.512;7.504;2023-06-26T05:28:12;6.47;;;5.70;;
5414;SDS011;2730;51.512;7.504;2023-06-26T05:30:40;11.90;;;6.20;;
5414;SDS011;2730;51.512;7.504;2023-06-26T05:33:08;8.40;;;5.50;;
5414;SDS011;2730;51.512;7.504;2023-06-26T05:35:38;5.77;;;5.10;;
5414;SDS011;2730;51.512;7.504;2023-06-26T05:38:05;8.20;;;5.27;;
5414;SDS011;2730;51.512;7.504;2023-06-26T05:40:33;6.67;;;5.40;;
5414;SDS011;2730;51.512;7.504;2023-06-26T05:43:01;7.80;;;5.53;;
5414;SDS011;2730;51.512;7.504;2023-06-26T05:45:28;6.20;;;5.10;;
5414;SDS011;2730;51.512;7.504;2023-06-26T05:47:55;5.90;;;4.67;;
5414;SDS011;2730;51.512;7.504;2023-06-26T05:50:22;10.50;;;5.03;;
5414;SDS011;2730;51.512;7.504;2023-06-26T05:52:50;6.97;;;5.13;;
5414;SDS011;2730;51.512;7.504;2023-06-26T05:55:17;7.53;;;5.17;;
5414;SDS011;2730;51.512;7.504;2023-06-26T05:57:45;8.33;;;5.80;;
5414;SDS011;2730;51.512;7.504;2023-06-26T06:00:14;6.90;;;6.00;;
5414;SDS011;2730;51.512;7.504;2023-06-26T06:02:41;8.67;;;5.80;;
5414;SDS011;2730;51.512;7.504;2023-06-26T06:05:08;8.57;;;5.63;;
5414;SDS011;2730;51.512;7.504;2023-06-26T06:07:36;7.40;;;5.60;;
5414;SDS011;2730;51.512;7.504;2023-06-26T06:10:03;9.63;;;5.93;;
5414;SDS011;2730;51.512;7.504;2023-06-26T06:12:30;9.37;;;6.60;;
5414;SDS011;2730;51.512;7.504;2023-06-26T06:14:57;9.20;;;6.60;;
5414;SDS011;2730;51.512;7.504;2023-06-26T06:17:25;5.90;;;5.30;;
5414;SDS011;2730;51.512;7.504;2023-06-26T06:19:52;9.87;;;6.10;;
5414;SDS011;2730;51.512;7.504;2023-06-26T06:22:19;9.80;;;7.87;;
5414;SDS011;2730;51.512;7.504;2023-06-26T06:24:48;7.77;;;6.97;;
5414;SDS011;2730;51.512;7.504;2023-06-26T06:27:15;11.57;;;6.07;;
5414;SDS011;2730;51.512;7.504;2023-06-26T06:29:42;6.77;;;5.60;;
5414;SDS011;2730;51.512;7.504;2023-06-26T06:32:08;8.07;;;6.70;;
5414;SDS011;2730;51.512;7.504;2023-06-26T06:34:37;13.13;;;7.17;;
5414;SDS011;2730;51.512;7.504;2023-06-26T06:37:03;9.70;;;6.93;;
5414;SDS011;2730;51.512;7.504;2023-06-26T06:39:30;8.33;;;6.20;;
5414;SDS011;2730;51.512;7.504;2023-06-26T06:41:57;10.70;;;6.83;;
5414;SDS011;2730;51.512;7.504;2023-06-26T06:44:24;7.50;;;5.77;;
5414;SDS011;2730;51.512;7.504;2023-06-26T06:46:50;11.47;;;6.20;;
5414;SDS011;2730;51.512;7.504;2023-06-26T06:49:18;7.93;;;6.10;;
5414;SDS011;2730;51.512;7.504;2023-06-26T06:51:46;12.20;;;6.10;;
5414;SDS011;2730;51.512;7.504;2023-06-26T06:54:14;8.30;;;6.20;;
5414;SDS011;2730;51.512;7.504;2023-06-26T06:56:42;7.80;;;5.43;;
5414;SDS011;2730;51.512;7.504;2023-06-26T06:59:08;11.77;;;6.53;;
5414;SDS011;2730;51.512;7.504;2023-06-26T07:01:35;8.43;;;5.43;;
5414;SDS011;2730;51.512;7.504;2023-06-26T07:04:02;8.03;;;5.47;;
5414;SDS011;2730;51.512;7.504;2023-06-26T07:06:29;7.10;;;5.13;;
5414;SDS011;2730;51.512;7.504;2023-06-26T07:08:57;8.97;;;5.77;;
5414;SDS011;2730;51.512;7.504;2023-06-26T07:11:24;10.00;;;5.30;;
5414;SDS011;2730;51.512;7.504;2023-06-26T07:13:51;7.30;;;5.47;;
5414;SDS011;2730;51.512;7.504;2023-06-26T07:16:18;5.57;;;4.70;;
5414;SDS011;2730;51.512;7.504;2023-06-26T07:18:44;13.77;;;5.40;;
5414;SDS011;2730;51.512;7.504;2023-06-26T07:21:11;9.20;;;4.37;;
5414;SDS011;2730;51.512;7.504;2023-06-26T07:23:38;9.37;;;5.10;;
5414;SDS011;2730;51.512;7.504;2023-06-26T07:26:06;10.10;;;4.60;;
5414;SDS011;2730;51.512;7.504;2023-06-26T07:28:33;9.90;;;5.20;;
5414;SDS011;2730;51.512;7.504;2023-06-26T07:30:59;7.57;;;5.40;;
5414;SDS011;2730;51.512;7.504;2023-06-26T07:33:26;9.50;;;5.00;;
5414;SDS011;2730;51.512;7.504;2023-06-26T07:35:53;9.17;;;4.57;;
5414;SDS011;2730;51.512;7.504;2023-06-26T07:38:19;9.40;;;5.50;;
5414;SDS011;2730;51.512;7.504;2023-06-26T07:40:46;7.53;;;4.27;;
5414;SDS011;2730;51.512;7.504;2023-06-26T07:43:15;11.30;;;5.13;;
5414;SDS011;2730;51.512;7.504;2023-06-26T07:45:41;7.40;;;5.43;;
5414;SDS011;2730;51.512;7.504;2023-06-26T07:48:08;10.90;;;5.63;;
5414;SDS011;2730;51.512;7.504;2023-06-26T07:50:35;8.80;;;5.23;;
5414;SDS011;2730;51.512;7.504;2023-06-26T07:53:02;20.00;;;5.87;;
5414;SDS011;2730;51.512;7.504;2023-06-26T07:55:30;8.07;;;5.30;;
5414;SDS011;2730;51.512;7.504;2023-06-26T07:57:57;9.93;;;6.20;;
5414;SDS011;2730;51.512;7.504;2023-06-26T08:00:25;8.00;;;5.93;;
5414;SDS011;2730;51.512;7.504;2023-06-26T08:02:52;7.40;;;5.50;;
5414;SDS011;2730;51.512;7.504;2023-06-26T08:05:19;11.70;;;6.00;;
5414;SDS011;2730;51.512;7.504;2023-06-26T08:07:45;10.50;;;5.83;;
5414;SDS011;2730;51.512;7.504;2023-06-26T08:10:12;10.77;;;6.70;;
5414;SDS011;2730;51.512;7.504;2023-06-26T08:12:39;8.90;;;6.40;;
5414;SDS011;2730;51.512;7.504;2023-06-26T08:15:07;9.23;;;5.43;;
5414;SDS011;2730;51.512;7.504;2023-06-26T08:17:36;9.17;;;5.70;;
5414;SDS011;2730;51.512;7.504;2023-06-26T08:20:04;9.03;;;6.30;;
5414;SDS011;2730;51.512;7.504;2023-06-26T08:22:33;13.73;;;5.63;;
5414;SDS011;2730;51.512;7.504;2023-06-26T08:25:00;9.77;;;6.07;;
5414;SDS011;2730;51.512;7.504;2023-06-26T08:27:28;13.87;;;5.77;;
5414;SDS011;2730;51.512;7.504;2023-06-26T08:29:54;10.20;;;6.27;;
5414;SDS011;2730;51.512;7.504;2023-06-26T08:32:21;10.40;;;6.93;;
5414;SDS011;2730;51.512;7.504;2023-06-26T08:34:49;18.83;;;8.30;;
5414;SDS011;2730;51.512;7.504;2023-06-26T08:37:17;13.30;;;9.00;;
5414;SDS011;2730;51.512;7.504;2023-06-26T08:39:43;12.27;;;8.10;;
5414;SDS011;2730;51.512;7.504;2023-06-26T08:42:10;12.40;;;8.00;;
5414;SDS011;2730;51.512;7.504;2023-06-26T08:44:37;18.00;;;7.40;;
5414;SDS011;2730;51.512;7.504;2023-06-26T08:47:04;9.57;;;7.10;;
5414;SDS011;2730;51.512;7.504;2023-06-26T08:49:34;12.40;;;7.40;;
5414;SDS011;2730;51.512;7.504;2023-06-26T08:52:10;14.00;;;8.90;;
5414;SDS011;2730;51.512;7.504;2023-06-26T08:54:40;13.00;;;8.50;;
5414;SDS011;2730;51.512;7.504;2023-06-26T08:57:12;13.57;;;9.43;;
5414;SDS011;2730;51.512;7.504;2023-06-26T08:59:41;16.53;;;8.30;;
5414;SDS011;2730;51.512;7.504;2023-06-26T09:02:08;11.47;;;8.90;;
5414;SDS011;2730;51.512;7.504;2023-06-26T09:04:36;16.08;;;11.27;;
5414;SDS011;2730;51.512;7.504;2023-06-26T09:07:03;18.03;;;9.50;;
5414;SDS011;2730;51.512;7.504;2023-06-26T09:09:32;13.10;;;8.40;;
5414;SDS011;2730;51.512;7.504;2023-06-26T09:11:59;16.53;;;9.63;;
5414;SDS011;2730;51.512;7.504;2023-06-26T09:14:27;14.90;;;10.10;;
5414;SDS011;2730;51.512;7.504;2023-06-26T09:16:55;15.07;;;12.17;;
5414;SDS011;2730;51.512;7.504;2023-06-26T09:19:22;17.27;;;13.90;;
5414;SDS011;2730;51.512;7.504;2023-06-26T09:21:49;19.53;;;12.43;;
5414;SDS011;2730;51.512;7.504;2023-06-26T09:24:16;20.27;;;13.20;;
5414;SDS011;2730;51.512;7.504;2023-06-26T09:26:45;15.17;;;11.97;;
5414;SDS011;2730;51.512;7.504;2023-06-26T09:29:12;19.13;;;10.63;;
5414;SDS011;2730;51.512;7.504;2023-06-26T09:31:40;11.30;;;7.57;;
5414;SDS011;2730;51.512;7.504;2023-06-26T09:34:08;9.97;;;7.13;;
5414;SDS011;2730;51.512;7.504;2023-06-26T09:36:35;10.43;;;7.37;;
5414;SDS011;2730;51.512;7.504;2023-06-26T09:39:02;19.73;;;6.47;;
5414;SDS011;2730;51.512;7.504;2023-06-26T09:41:33;14.23;;;5.80;;
5414;SDS011;2730;51.512;7.504;2023-06-26T09:44:02;11.73;;;5.80;;
5414;SDS011;2730;51.512;7.504;2023-06-26T09:46:29;7.57;;;4.93;;
5414;SDS011;2730;51.512;7.504;2023-06-26T09:48:58;9.30;;;5.10;;
5414;SDS011;2730;51.512;7.504;2023-06-26T09:51:29;10.00;;;5.83;;
5414;SDS011;2730;51.512;7.504;2023-06-26T09:53:57;6.90;;;5.03;;
5414;SDS011;2730;51.512;7.504;2023-06-26T09:56:24;6.90;;;4.80;;
5414;SDS011;2730;51.512;7.504;2023-06-26T09:58:51;13.63;;;5.30;;
5414;SDS011;2730;51.512;7.504;2023-06-26T10:01:19;9.20;;;5.57;;
5414;SDS011;2730;51.512;7.504;2023-06-26T10:03:49;6.73;;;4.63;;
5414;SDS011;2730;51.512;7.504;2023-06-26T10:06:17;11.83;;;5.77;;
5414;SDS011;2730;51.512;7.504;2023-06-26T10:08:48;7.70;;;4.60;;
5414;SDS011;2730;51.512;7.504;2023-06-26T10:11:18;9.23;;;5.37;;
5414;SDS011;2730;51.512;7.504;2023-06-26T10:13:49;8.10;;;5.23;;
5414;SDS011;2730;51.512;7.504;2023-06-26T10:16:18;7.30;;;4.10;;
5414;SDS011;2730;51.512;7.504;2023-06-26T10:18:50;6.03;;;4.83;;
5414;SDS011;2730;51.512;7.504;2023-06-26T10:21:19;7.40;;;4.30;;
5414;SDS011;2730;51.512;7.504;2023-06-26T10:23:48;9.63;;;4.97;;
5414;SDS011;2730;51.512;7.504;2023-06-26T10:26:17;9.63;;;4.40;;
5414;SDS011;2730;51.512;7.504;2023-06-26T10:28:47;6.33;;;4.10;;
5414;SDS011;2730;51.512;7.504;2023-06-26T10:31:17;6.47;;;3.77;;
5414;SDS011;2730;51.512;7.504;2023-06-26T10:33:48;4.63;;;3.20;;
5414;SDS011;2730;51.512;7.504;2023-06-26T10:36:16;9.43;;;3.90;;
5414;SDS011;2730;51.512;7.504;2023-06-26T10:38:51;5.77;;;3.70;;
5414;SDS011;2730;51.512;7.504;2023-06-26T10:41:19;6.10;;;3.60;;
5414;SDS011;2730;51.512;7.504;2023-06-26T10:43:51;11.93;;;4.73;;
5414;SDS011;2730;51.512;7.504;2023-06-26T10:46:32;9.77;;;4.93;;
5414;SDS011;2730;51.512;7.504;2023-06-26T10:49:01;5.00;;;4.00;;
5414;SDS011;2730;51.512;7.504;2023-06-26T10:51:28;5.43;;;4.10;;
5414;SDS011;2730;51.512;7.504;2023-06-26T10:53:55;9.13;;;4.67;;
5414;SDS011;2730;51.512;7.504;2023-06-26T10:59:11;4.93;;;3.73;;
5414;SDS011;2730;51.512;7.504;2023-06-26T11:01:41;10.20;;;3.80;;
5414;SDS011;2730;51.512;7.504;2023-06-26T11:04:09;5.10;;;3.30;;
5414;SDS011;2730;51.512;7.504;2023-06-26T11:06:37;7.10;;;2.80;;
5414;SDS011;2730;51.512;7.504;2023-06-26T11:09:09;7.40;;;3.70;;
5414;SDS011;2730;51.512;7.504;2023-06-26T11:14:29;5.63;;;3.40;;
5414;SDS011;2730;51.512;7.504;2023-06-26T11:16:57;5.73;;;3.00;;
5414;SDS011;2730;51.512;7.504;2023-06-26T11:19:27;6.20;;;3.37;;
5414;SDS011;2730;51.512;7.504;2023-06-26T11:22:02;6.77;;;3.10;;
5414;SDS011;2730;51.512;7.504;2023-06-26T11:24:30;10.93;;;3.00;;
5414;SDS011;2730;51.512;7.504;2023-06-26T11:27:01;4.50;;;3.50;;
5414;SDS011;2730;51.512;7.504;2023-06-26T11:29:29;7.20;;;4.27;;
5414;SDS011;2730;51.512;7.504;2023-06-26T11:32:00;7.43;;;3.30;;
5414;SDS011;2730;51.512;7.504;2023-06-26T11:34:32;5.60;;;3.03;;
5414;SDS011;2730;51.512;7.504;2023-06-26T11:37:00;10.67;;;2.90;;
5414;SDS011;2730;51.512;7.504;2023-06-26T11:39:28;7.10;;;3.47;;
5414;SDS011;2730;51.512;7.504;2023-06-26T11:41:55;5.30;;;3.33;;
5414;SDS011;2730;51.512;7.504;2023-06-26T11:44:22;3.50;;;3.20;;
5414;SDS011;2730;51.512;7.504;2023-06-26T11:46:51;13.73;;;4.90;;
5414;SDS011;2730;51.512;7.504;2023-06-26T11:49:20;3.80;;;3.20;;
5414;SDS011;2730;51.512;7.504;2023-06-26T11:51:49;8.87;;;3.70;;
5414;SDS011;2730;51.512;7.504;2023-06-26T11:54:22;7.00;;;3.30;;
5414;SDS011;2730;51.512;7.504;2023-06-26T11:56:53;7.30;;;3.10;;
5414;SDS011;2730;51.512;7.504;2023-06-26T11:59:22;6.10;;;3.50;;
5414;SDS011;2730;51.512;7.504;2023-06-26T12:01:50;3.63;;;3.00;;
5414;SDS011;2730;51.512;7.504;2023-06-26T12:04:18;6.27;;;3.67;;
5414;SDS011;2730;51.512;7.504;2023-06-26T12:06:46;8.53;;;3.13;;
5414;SDS011;2730;51.512;7.504;2023-06-26T12:09:16;5.20;;;2.90;;
5414;SDS011;2730;51.512;7.504;2023-06-26T12:11:44;7.87;;;2.73;;
5414;SDS011;2730;51.512;7.504;2023-06-26T12:14:14;5.40;;;3.10;;
5414;SDS011;2730;51.512;7.504;2023-06-26T12:16:42;4.30;;;2.90;;
5414;SDS011;2730;51.512;7.504;2023-06-26T12:19:09;3.57;;;3.27;;
5414;SDS011;2730;51.512;7.504;2023-06-26T12:21:45;8.63;;;2.20;;
5414;SDS011;2730;51.512;7.504;2023-06-26T12:24:19;5.83;;;2.17;;
5414;SDS011;2730;51.512;7.504;2023-06-26T12:26:49;4.23;;;2.03;;
5414;SDS011;2730;51.512;7.504;2023-06-26T12:29:19;5.30;;;2.20;;
5414;SDS011;2730;51.512;7.504;2023-06-26T12:31:49;5.10;;;2.47;;
5414;SDS011;2730;51.512;7.504;2023-06-26T12:34:18;7.57;;;2.90;;
5414;SDS011;2730;51.512;7.504;2023-06-26T12:36:46;2.20;;;2.00;;
5414;SDS011;2730;51.512;7.504;2023-06-26T12:39:15;7.60;;;2.30;;
5414;SDS011;2730;51.512;7.504;2023-06-26T12:41:47;3.20;;;2.40;;
5414;SDS011;2730;51.512;7.504;2023-06-26T12:44:18;2.50;;;1.90;;
5414;SDS011;2730;51.512;7.504;2023-06-26T12:46:46;4.20;;;1.50;;
5414;SDS011;2730;51.512;7.504;2023-06-26T12:49:14;9.00;;;2.10;;
5414;SDS011;2730;51.512;7.504;2023-06-26T12:51:41;2.27;;;1.43;;
5414;SDS011;2730;51.512;7.504;2023-06-26T12:54:08;5.70;;;2.20;;
5414;SDS011;2730;51.512;7.504;2023-06-26T12:56:35;3.10;;;1.77;;
5414;SDS011;2730;51.512;7.504;2023-06-26T12:59:04;1.70;;;1.43;;
5414;SDS011;2730;51.512;7.504;2023-06-26T13:01:30;2.07;;;1.53;;
5414;SDS011;2730;51.512;7.504;2023-06-26T13:03:57;1.40;;;1.30;;
5414;SDS011;2730;51.512;7.504;2023-06-26T13:06:24;6.13;;;2.27;;
5414;SDS011;2730;51.512;7.504;2023-06-26T13:08:51;3.00;;;1.20;;
5414;SDS011;2730;51.512;7.504;2023-06-26T13:11:18;3.87;;;1.63;;
5414;SDS011;2730;51.512;7.504;2023-06-26T13:13:46;8.90;;;1.50;;
5414;SDS011;2730;51.512;7.504;2023-06-26T13:16:14;7.67;;;1.70;;
5414;SDS011;2730;51.512;7.504;2023-06-26T13:18:41;5.67;;;2.47;;
5414;SDS011;2730;51.512;7.504;2023-06-26T13:21:08;3.43;;;1.87;;
5414;SDS011;2730;51.512;7.504;2023-06-26T13:23:34;3.30;;;1.40;;
5414;SDS011;2730;51.512;7.504;2023-06-26T13:26:01;4.03;;;1.50;;
5414;SDS011;2730;51.512;7.504;2023-06-26T13:28:28;2.23;;;1.10;;
5414;SDS011;2730;51.512;7.504;2023-06-26T13:30:55;3.20;;;1.80;;
5414;SDS011;2730;51.512;7.504;2023-06-26T13:33:23;4.53;;;1.90;;
5414;SDS011;2730;51.512;7.504;2023-06-26T13:35:50;4.60;;;1.53;;
5414;SDS011;2730;51.512;7.504;2023-06-26T13:38:17;3.40;;;1.37;;
5414;SDS011;2730;51.512;7.504;2023-06-26T13:40:44;1.70;;;1.60;;
5414;SDS011;2730;51.512;7.504;2023-06-26T13:43:11;2.20;;;1.50;;
5414;SDS011;2730;51.512;7.504;2023-06-26T13:45:38;2.83;;;1.77;;
5414;SDS011;2730;51.512;7.504;2023-06-26T13:48:05;3.00;;;1.73;;
5414;SDS011;2730;51.512;7.504;2023-06-26T13:50:33;4.03;;;1.33;;
5414;SDS011;2730;51.512;7.504;2023-06-26T13:52:59;2.50;;;1.23;;
5414;SDS011;2730;51.512;7.504;2023-06-26T13:55:27;3.87;;;1.47;;
5414;SDS011;2730;51.512;7.504;2023-06-26T13:57:54;7.97;;;2.00;;
5414;SDS011;2730;51.512;7.504;2023-06-26T14:00:21;2.20;;;1.23;;
5414;SDS011;2730;51.512;7.504;2023-06-26T14:02:48;2.83;;;1.33;;
5414;SDS011;2730;51.512;7.504;2023-06-26T14:05:15;1.67;;;0.90;;
5414;SDS011;2730;51.512;7.504;2023-06-26T14:07:44;3.43;;;1.50;;
5414;SDS011;2730;51.512;7.504;2023-06-26T14:10:11;4.53;;;1.10;;
5414;SDS011;2730;51.512;7.504;2023-06-26T14:12:39;1.63;;;1.10;;
5414;SDS011;2730;51.512;7.504;2023-06-26T14:15:07;2.13;;;1.40;;
5414;SDS011;2730;51.512;7.504;2023-06-26T14:17:35;3.40;;;1.33;;
5414;SDS011;2730;51.512;7.504;2023-06-26T14:20:05;1.50;;;1.40;;
5414;SDS011;2730;51.512;7.504;2023-06-26T14:22:34;2.87;;;1.30;;
5414;SDS011;2730;51.512;7.504;2023-06-26T14:25:03;2.43;;;1.37;;
5414;SDS011;2730;51.512;7.504;2023-06-26T14:27:30;1.30;;;1.20;;
5414;SDS011;2730;51.512;7.504;2023-06-26T14:29:57;2.53;;;1.00;;
5414;SDS011;2730;51.512;7.504;2023-06-26T14:32:24;2.10;;;1.13;;
5414;SDS011;2730;51.512;7.504;2023-06-26T14:34:50;2.60;;;1.40;;
5414;SDS011;2730;51.512;7.504;2023-06-26T14:37:17;1.50;;;1.40;;
5414;SDS011;2730;51.512;7.504;2023-06-26T14:39:44;3.00;;;1.20;;
5414;SDS011;2730;51.512;7.504;2023-06-26T14:42:12;3.43;;;1.30;;
5414;SDS011;2730;51.512;7.504;2023-06-26T14:44:39;2.90;;;1.40;;
5414;SDS011;2730;51.512;7.504;2023-06-26T14:47:06;2.73;;;1.17;;
5414;SDS011;2730;51.512;7.504;2023-06-26T14:49:32;3.17;;;1.40;;
5414;SDS011;2730;51.512;7.504;2023-06-26T14:51:59;1.20;;;1.10;;
5414;SDS011;2730;51.512;7.504;2023-06-26T14:54:26;2.40;;;1.20;;
5414;SDS011;2730;51.512;7.504;2023-06-26T14:56:53;1.50;;;1.40;;
5414;SDS011;2730;51.512;7.504;2023-06-26T14:59:21;2.70;;;1.50;;
5414;SDS011;2730;51.512;7.504;2023-06-26T15:01:47;2.30;;;1.37;;
5414;SDS011;2730;51.512;7.504;2023-06-26T15:04:14;1.37;;;1.10;;
5414;SDS011;2730;51.512;7.504;2023-06-26T15:06:41;4.30;;;1.20;;
5414;SDS011;2730;51.512;7.504;2023-06-26T15:09:08;3.40;;;1.60;;
5414;SDS011;2730;51.512;7.504;2023-06-26T15:11:35;3.30;;;1.77;;
5414;SDS011;2730;51.512;7.504;2023-06-26T15:14:01;2.00;;;1.50;;
5414;SDS011;2730;51.512;7.504;2023-06-26T15:16:29;3.20;;;2.60;;
5414;SDS011;2730;51.512;7.504;2023-06-26T15:18:56;2.60;;;1.57;;
5414;SDS011;2730;51.512;7.504;2023-06-26T15:21:23;2.93;;;1.60;;